Time;durP1;ratioP1;P1;durP2;ratioP2;P2;SDS_P1;SDS_P2;PMS_P1;PMS_P2;Temp;Humidity;BMP_temperature;BMP_pressure;BME280_temperature;BME280_humidity;BME280_pressure;Samples;Min_cycle;Max_cycle;Signal;HPM_P1;HPM_P2
2022/01/09 00:02:10;;;;;;;12.43;5.58;;;;;;;2.39;86.95;98343.31;1754035;82;21062;-86
2022/01/09 00:04:40;;;;;;;11.65;5.97;;;;;;;2.39;86.34;98345.03;1757594;80;21082;-87
2022/01/09 00:07:07;;;;;;;15.05;6.90;;;;;;;2.35;87.40;98342.05;1771968;79;21034;-85
2022/01/09 00:09:37;;;;;;;11.60;5.53;;;;;;;2.35;86.73;98336.92;1762221;81;21049;-86
2022/01/09 00:12:05;;;;;;;9.20;4.80;;;;;;;2.32;87.80;98344.63;1721920;80;21622;-87
2022/01/09 00:14:33;;;;;;;10.08;4.90;;;;;;;2.35;86.49;98339.05;1807349;78;20955;-89
2022/01/09 00:17:00;;;;;;;11.20;5.12;;;;;;;2.35;86.52;98340.34;1818422;77;21172;-89
2022/01/09 00:19:28;;;;;;;9.43;5.30;;;;;;;2.30;87.07;98341.21;1797712;80;21029;-89
2022/01/09 00:21:56;;;;;;;9.35;4.05;;;;;;;2.29;87.17;98339.48;1784412;80;21045;-88
2022/01/09 00:24:25;;;;;;;6.78;3.60;;;;;;;2.27;88.03;98341.20;1758824;79;21076;-87
2022/01/09 00:26:53;;;;;;;5.97;3.17;;;;;;;2.25;87.76;98336.52;1758041;81;21012;-88
2022/01/09 00:29:20;;;;;;;6.37;3.52;;;;;;;2.22;87.70;98343.80;1758197;81;20964;-89
2022/01/09 00:31:48;;;;;;;6.30;3.02;;;;;;;2.22;87.33;98337.83;1770637;80;20995;-88
2022/01/09 00:34:16;;;;;;;5.80;3.00;;;;;;;2.20;87.38;98337.83;1775909;80;20999;-89
2022/01/09 00:36:43;;;;;;;7.12;2.95;;;;;;;2.22;87.15;98332.70;1817132;78;21035;-89
2022/01/09 00:39:11;;;;;;;7.90;2.72;;;;;;;2.22;87.21;98333.98;1821751;78;21005;-87
2022/01/09 00:41:38;;;;;;;4.42;2.35;;;;;;;2.18;87.28;98324.16;1812341;78;21037;-86
2022/01/09 00:44:07;;;;;;;3.55;2.05;;;;;;;2.10;88.06;98321.61;1753412;78;21063;-86
2022/01/09 00:46:35;;;;;;;4.08;2.12;;;;;;;2.10;87.38;98317.77;1768372;81;21022;-87
2022/01/09 00:49:04;;;;;;;5.03;1.70;;;;;;;2.06;87.35;98314.79;1742484;81;21035;-88
2022/01/09 00:51:32;;;;;;;2.00;1.32;;;;;;;2.02;87.68;98319.51;1748017;79;21530;-87
2022/01/09 00:53:59;;;;;;;2.22;1.40;;;;;;;2.01;87.66;98317.82;1747680;81;21084;-86
2022/01/09 00:56:26;;;;;;;2.25;1.30;;;;;;;2.01;87.57;98319.51;1723225;82;21050;-86
2022/01/09 00:58:54;;;;;;;3.05;1.60;;;;;;;1.95;87.25;98316.13;1711026;83;21545;-88
2022/01/09 01:01:21;;;;;;;2.70;1.22;;;;;;;1.93;87.59;98315.68;1723316;83;21012;-85
2022/01/09 01:03:49;;;;;;;2.85;1.50;;;;;;;1.90;87.49;98313.14;1767865;81;21021;-86
2022/01/09 01:06:16;;;;;;;2.85;1.50;;;;;;;1.86;87.55;98317.86;1762488;81;21035;-85
2022/01/09 01:08:44;;;;;;;4.22;1.87;;;;;;;1.86;87.83;98314.02;1765382;81;21037;-85
2022/01/09 01:11:12;;;;;;;4.12;1.62;;;;;;;1.85;87.46;98309.32;1771351;80;21016;-86
2022/01/09 01:13:40;;;;;;;2.37;1.47;;;;;;;1.72;88.95;98309.77;1742845;79;22549;-88
2022/01/09 01:16:08;;;;;;;3.42;1.47;;;;;;;1.70;88.94;98309.35;1748587;82;21113;-85
2022/01/09 01:18:35;;;;;;;2.47;1.40;;;;;;;1.68;88.43;98296.97;1748862;82;21004;-88
2022/01/09 01:21:03;;;;;;;2.50;1.40;;;;;;;1.67;88.93;98304.22;1728202;82;21102;-86
2022/01/09 01:23:31;;;;;;;1.80;1.40;;;;;;;1.63;88.94;98297.39;1745575;81;20968;-86
2022/01/09 01:26:01;;;;;;;2.50;1.60;;;;;;;1.59;89.22;98301.27;1746499;79;21052;-86
2022/01/09 01:28:30;;;;;;;2.20;1.47;;;;;;;1.58;88.77;98302.10;1723916;78;21068;-81
2022/01/09 01:30:58;;;;;;;2.45;1.50;;;;;;;1.53;89.71;98292.31;1730041;80;21078;-85
2022/01/09 01:33:38;;;;;;;2.80;1.57;;;;;;;1.56;88.88;98291.00;1709412;79;23430;31
2022/01/09 01:42:21;;;;;;;2.27;1.27;;;;;;;1.54;89.71;98281.62;1792747;77;21059;-80
2022/01/09 01:44:53;;;;;;;2.65;1.42;;;;;;;1.48;90.36;98271.39;1814021;79;21059;-82
2022/01/09 01:47:22;;;;;;;3.08;1.55;;;;;;;1.45;90.17;98261.98;1827110;78;21031;-82
2022/01/09 01:56:07;;;;;;;1.40;1.12;;;;;;;1.43;90.26;98264.98;1763869;77;21035;-81
2022/01/09 02:14:28;;;;;;;1.92;1.35;;;;;;;1.32;90.57;98258.61;1717973;79;21199;-84
2022/01/09 02:35:56;;;;;;;2.70;1.30;;;;;;;1.27;91.02;98225.73;1720656;80;21067;-83
2022/01/09 02:48:10;;;;;;;1.70;1.17;;;;;;;1.21;90.82;98208.27;1706112;79;21599;-78
2022/01/09 02:53:36;;;;;;;2.15;1.17;;;;;;;1.22;90.40;98200.59;1708524;80;21110;-85
2022/01/09 02:59:07;;;;;;;3.20;1.53;;;;;;;1.08;91.26;98207.45;1683673;80;21147;-77
2022/01/09 03:05:01;;;;;;;2.80;1.42;;;;;;;1.03;91.07;98209.14;1684846;81;22515;31
2022/01/09 03:22:45;;;;;;;1.00;0.90;;;;;;;1.01;91.70;98178.86;1731307;79;21051;31
2022/01/09 03:25:13;;;;;;;1.07;0.90;;;;;;;1.02;91.25;98171.63;1749525;79;21086;-78
2022/01/09 03:33:21;;;;;;;1.20;0.90;;;;;;;0.99;91.82;98183.57;1741704;77;21190;31
2022/01/09 03:35:49;;;;;;;0.80;0.80;;;;;;;0.98;91.69;98181.00;1748570;79;21090;-79
2022/01/09 04:04:04;;;;;;;2.17;1.52;;;;;;;1.03;91.60;98186.95;1761362;78;21142;-83
2022/01/09 04:06:32;;;;;;;2.33;1.60;;;;;;;1.03;92.16;98189.95;1773714;78;21075;-82
2022/01/09 04:30:25;;;;;;;2.00;1.20;;;;;;;0.98;92.01;98181.84;1710264;78;21091;-78
2022/01/09 04:33:09;;;;;;;2.05;1.30;;;;;;;0.96;91.86;98181.00;1736038;77;22357;31
2022/01/09 05:20:18;;;;;;;2.72;1.65;;;;;;;0.74;92.67;98162.26;1694948;82;21246;31
2022/01/09 05:22:53;;;;;;;2.60;1.50;;;;;;;0.73;92.87;98163.53;1680597;80;21277;31
2022/01/09 05:56:01;;;;;;;4.60;3.10;;;;;;;0.73;92.11;98169.49;1655194;83;21139;-84
2022/01/09 06:01:46;;;;;;;7.25;4.08;;;;;;;0.75;92.58;98164.38;1716276;80;21136;31
2022/01/09 06:04:14;;;;;;;3.55;2.27;;;;;;;0.75;92.58;98164.38;1649326;86;21155;-86
2022/01/09 06:20:51;;;;;;;4.87;1.50;;;;;;;0.81;92.39;98172.05;1735308;79;22869;31
2022/01/09 06:29:16;;;;;;;2.90;1.85;;;;;;;0.77;93.33;98172.48;1707319;81;21146;-80
2022/01/09 06:40:55;;;;;;;2.42;1.50;;;;;;;0.71;93.16;98169.08;1698686;82;21042;-81
2022/01/09 06:46:15;;;;;;;3.67;1.97;;;;;;;0.71;93.14;98175.04;1745411;78;21134;31
2022/01/09 06:48:43;;;;;;;3.33;1.80;;;;;;;0.74;92.70;98178.89;1761539;81;21544;-81
2022/01/09 06:51:11;;;;;;;3.40;2.02;;;;;;;0.70;93.50;98184.02;1761345;81;21546;-80
2022/01/09 06:53:38;;;;;;;4.45;2.65;;;;;;;0.70;93.51;98186.58;1762021;81;21066;-81
2022/01/09 06:56:06;;;;;;;5.50;2.60;;;;;;;0.75;92.94;98178.45;1762254;81;21003;-82
2022/01/09 07:04:53;;;;;;;5.10;2.52;;;;;;;0.74;93.05;98172.50;1727992;79;29056;31
2022/01/09 07:34:40;;;;;;;7.40;2.67;;;;;;;1.04;92.49;98177.59;1706698;81;21113;-82
2022/01/09 07:37:08;;;;;;;6.72;3.30;;;;;;;1.04;92.55;98173.75;1742274;79;21062;-82
2022/01/09 07:39:36;;;;;;;5.15;2.50;;;;;;;1.09;92.25;98179.70;1741828;78;22574;-81
2022/01/09 08:04:14;;;;;;;6.15;2.98;;;;;;;1.39;91.45;98171.95;1747382;77;21118;-85
2022/01/09 08:06:42;;;;;;;5.30;3.10;;;;;;;1.39;91.42;98174.52;1793906;76;21029;-85
2022/01/09 08:09:09;;;;;;;6.60;3.12;;;;;;;1.45;91.02;98171.49;1772330;81;21054;-87
2022/01/09 08:11:39;;;;;;;6.42;3.35;;;;;;;1.45;91.42;98172.33;1730529;77;21064;-87
2022/01/09 08:14:07;;;;;;;5.35;3.40;;;;;;;1.49;91.45;98170.22;1746733;79;21598;-86
2022/01/09 08:16:35;;;;;;;8.58;3.35;;;;;;;1.55;90.82;98167.62;1768945;81;21082;-85
2022/01/09 08:19:03;;;;;;;5.85;3.05;;;;;;;1.53;90.64;98155.66;1777766;80;21046;-87
2022/01/09 08:21:31;;;;;;;6.53;3.10;;;;;;;1.53;90.68;98149.26;1765760;81;21051;-88
2022/01/09 08:23:58;;;;;;;7.55;3.40;;;;;;;1.53;90.60;98148.85;1764462;81;21023;-88
2022/01/09 08:26:26;;;;;;;9.55;3.65;;;;;;;1.59;90.63;98147.95;1751226;81;20991;-86
2022/01/09 08:28:54;;;;;;;6.25;2.90;;;;;;;1.64;90.76;98161.60;1770347;81;21030;-87
2022/01/09 08:31:23;;;;;;;7.30;3.12;;;;;;;1.71;90.72;98167.14;1769029;79;21060;-88
2022/01/09 08:33:51;;;;;;;5.58;2.83;;;;;;;1.73;90.54;98169.27;1783602;79;21052;-89
2022/01/09 08:36:19;;;;;;;7.03;3.40;;;;;;;1.77;90.40;98171.36;1783690;80;21510;-90
2022/01/09 08:38:48;;;;;;;5.62;3.65;;;;;;;1.78;90.26;98171.36;1773836;80;21498;-90
2022/01/09 08:41:17;;;;;;;6.83;3.17;;;;;;;1.84;90.33;98166.63;1669131;80;21148;-91
2022/01/09 08:43:47;;;;;;;5.15;2.75;;;;;;;1.89;89.95;98163.63;1730366;80;21132;-89
2022/01/09 08:46:15;;;;;;;5.45;2.85;;;;;;;1.92;89.86;98164.03;1728240;81;21710;-88
2022/01/09 08:48:43;;;;;;;4.97;3.17;;;;;;;1.92;89.69;98163.59;1677053;80;21114;-89
2022/01/09 08:51:12;;;;;;;5.87;3.27;;;;;;;1.98;89.65;98162.72;1749533;79;21028;-89
2022/01/09 08:53:41;;;;;;;5.42;3.20;;;;;;;2.06;89.82;98160.11;1742475;81;21800;-86
2022/01/09 08:56:09;;;;;;;5.65;3.25;;;;;;;2.12;89.87;98168.61;1776786;76;21124;-92
2022/01/09 08:58:37;;;;;;;5.28;2.98;;;;;;;2.21;89.61;98170.69;1775733;80;21029;-92
2022/01/09 09:01:05;;;;;;;5.03;2.60;;;;;;;2.23;89.28;98174.09;1754218;78;21067;-89
2022/01/09 09:03:34;;;;;;;5.12;2.95;;;;;;;2.21;89.12;98171.56;1735485;83;21025;-89
2022/01/09 09:06:02;;;;;;;5.85;3.15;;;;;;;2.17;88.58;98159.19;1686223;81;21076;-87
2022/01/09 09:08:29;;;;;;;5.33;2.98;;;;;;;2.15;88.59;98157.06;1743160;82;21551;-90
2022/01/09 09:10:57;;;;;;;5.62;2.92;;;;;;;2.13;88.63;98153.66;1729395;82;21014;-90
2022/01/09 09:13:26;;;;;;;8.83;3.70;;;;;;;2.18;88.84;98148.05;1739134;80;21173;-87
2022/01/09 09:15:54;;;;;;;6.42;3.75;;;;;;;2.24;88.80;98148.89;1700520;83;21053;-89
2022/01/09 09:18:21;;;;;;;10.05;3.75;;;;;;;2.30;88.79;98144.99;1735993;81;20984;-90
2022/01/09 09:20:49;;;;;;;10.50;5.33;;;;;;;2.32;88.56;98153.09;1715593;83;21099;-89
2022/01/09 09:23:17;;;;;;;10.68;5.45;;;;;;;2.33;88.71;98152.23;1712432;82;21007;-89
2022/01/09 09:25:45;;;;;;;9.45;5.10;;;;;;;2.42;88.86;98141.48;1700167;80;21095;-90
2022/01/09 09:28:15;;;;;;;10.32;4.70;;;;;;;2.45;88.64;98137.19;1742747;77;21125;-91
2022/01/09 09:30:45;;;;;;;9.98;4.10;;;;;;;2.49;88.07;98140.59;1702688;79;21097;-91
2022/01/09 09:33:13;;;;;;;7.30;3.47;;;;;;;2.51;88.23;98138.42;1664709;80;21120;-90
2022/01/09 09:35:40;;;;;;;4.83;2.87;;;;;;;2.59;88.29;98146.91;1663309;86;21050;-91
2022/01/09 09:38:08;;;;;;;5.83;2.95;;;;;;;2.63;87.76;98143.05;1663636;86;21075;-90
2022/01/09 09:40:35;;;;;;;8.23;3.98;;;;;;;2.69;88.24;98135.29;1697121;83;21547;-90
2022/01/09 09:43:06;;;;;;;6.30;3.40;;;;;;;2.73;88.01;98139.09;1701506;83;21026;-89
2022/01/09 09:45:33;;;;;;;8.68;3.90;;;;;;;2.81;87.91;98132.60;1701893;80;21673;-89
2022/01/09 09:48:01;;;;;;;6.78;3.52;;;;;;;2.81;87.54;98126.19;1704508;84;21456;-91
2022/01/09 09:50:29;;;;;;;9.18;4.97;;;;;;;2.84;87.43;98121.00;1683859;79;21115;-90
2022/01/09 09:52:58;;;;;;;14.00;8.10;;;;;;;2.89;87.29;98119.70;1638757;80;21250;-91
2022/01/09 09:55:25;;;;;;;9.13;4.37;;;;;;;2.95;87.29;98114.50;1688195;80;21679;-90
2022/01/09 09:57:53;;;;;;;7.47;4.30;;;;;;;3.01;87.19;98113.59;1703473;83;21116;-91
2022/01/09 10:00:26;;;;;;;8.05;4.20;;;;;;;3.03;86.58;98112.70;1775039;80;21615;-91
2022/01/09 10:03:00;;;;;;;8.00;4.40;;;;;;;3.05;86.56;98108.84;1678970;80;21267;-91
2022/01/09 10:05:36;;;;;;;11.08;5.00;;;;;;;3.05;86.88;98104.55;1716379;80;21170;-91
2022/01/09 10:08:10;;;;;;;11.10;5.75;;;;;;;3.05;85.89;98106.27;1697735;82;21207;-90
2022/01/09 10:10:40;;;;;;;13.90;5.47;;;;;;;3.11;86.42;98109.61;1683830;83;21233;-90
2022/01/09 10:13:15;;;;;;;9.80;5.53;;;;;;;3.09;86.09;98109.22;1692178;80;21063;-87
2022/01/09 10:15:53;;;;;;;7.00;3.67;;;;;;;3.08;86.21;98108.79;1722967;82;21166;-89
2022/01/09 10:18:45;;;;;;;8.50;4.62;;;;;;;3.13;85.89;98115.58;1695221;83;21153;-89
2022/01/09 10:21:22;;;;;;;10.58;4.92;;;;;;;3.11;85.37;98124.17;1742263;81;21044;-90
2022/01/09 10:24:07;;;;;;;8.38;4.80;;;;;;;3.11;85.15;98128.03;1708404;80;21814;-90
2022/01/09 10:26:38;;;;;;;8.90;4.15;;;;;;;3.12;85.81;98133.16;1705866;81;21100;-89
2022/01/09 10:29:08;;;;;;;6.28;4.08;;;;;;;3.07;85.63;98141.77;1699085;80;21139;-90
2022/01/09 10:34:18;;;;;;;6.85;3.80;;;;;;;3.12;85.48;98137.01;1668225;84;21112;-92
2022/01/09 10:36:51;;;;;;;6.62;3.20;;;;;;;3.18;85.51;98139.92;1668036;84;21072;-92
2022/01/09 10:39:26;;;;;;;16.95;6.20;;;;;;;3.18;85.42;98130.93;1694980;81;21120;-92
2022/01/09 10:42:03;;;;;;;25.17;8.38;;;;;;;3.17;85.48;98135.67;1675194;85;21094;-91
2022/01/09 10:44:37;;;;;;;21.45;8.80;;;;;;;3.16;85.55;98127.53;1698031;83;21130;-88
2022/01/09 10:47:10;;;;;;;;;;;;;;;3.12;85.12;98125.86;1735390;80;21175;-89
2022/01/09 10:49:49;;;;;;;15.37;7.70;;;;;;;3.09;85.01;98122.91;1713061;80;20094;-90
2022/01/09 10:52:26;;;;;;;17.73;8.78;;;;;;;3.10;85.28;98120.73;1698639;81;21077;-89
2022/01/09 10:54:58;;;;;;;19.62;9.15;;;;;;;3.13;85.47;98125.02;1699891;80;21055;-90
2022/01/09 10:57:29;;;;;;;23.87;11.30;;;;;;;3.10;85.45;98122.02;1711699;81;21212;-90
2022/01/09 11:00:15;;;;;;;34.63;16.25;;;;;;;3.13;85.70;98115.58;1702908;81;21081;-90
2022/01/09 11:02:46;;;;;;;39.13;16.97;;;;;;;3.15;85.73;98115.57;1658282;86;21085;-88
2022/01/09 11:05:14;;;;;;;31.37;15.03;;;;;;;3.14;85.75;98106.15;1685963;83;21152;-90
2022/01/09 11:07:44;;;;;;;21.75;9.40;;;;;;;3.16;85.72;98096.70;1679757;80;21069;-92
2022/01/09 11:10:13;;;;;;;16.85;7.53;;;;;;;3.22;86.10;98095.35;1654602;83;21577;-91
2022/01/09 11:12:48;;;;;;;15.95;6.87;;;;;;;3.24;85.86;98094.89;1673397;83;21196;-90
2022/01/09 11:15:19;;;;;;;13.68;6.72;;;;;;;3.24;85.74;98089.76;1683426;82;21132;-90
2022/01/09 11:17:47;;;;;;;10.45;5.25;;;;;;;3.24;85.62;98091.48;1666021;82;21100;-89
2022/01/09 11:20:17;;;;;;;10.88;5.97;;;;;;;3.21;85.75;98095.39;1642720;86;21189;-88
2022/01/09 11:22:47;;;;;;;8.05;4.47;;;;;;;3.19;85.59;98097.97;1672277;85;21030;-88
2022/01/09 11:25:41;;;;;;;9.05;5.12;;;;;;;3.25;85.97;98092.76;1693546;82;21147;-89
2022/01/09 11:28:23;;;;;;;14.53;8.68;;;;;;;3.26;85.65;98088.02;1708010;81;21064;-90
2022/01/09 11:31:02;;;;;;;19.98;11.83;;;;;;;3.25;85.52;98088.91;1734151;81;21067;-89
2022/01/09 11:33:48;;;;;;;19.52;11.08;;;;;;;3.26;85.12;98089.31;1709620;81;21174;-83
2022/01/09 11:36:48;;;;;;;15.13;9.58;;;;;;;3.27;85.16;98096.16;1719944;81;21160;-91
2022/01/09 11:39:27;;;;;;;20.10;9.73;;;;;;;3.30;84.92;98093.98;1755273;80;21162;-90
2022/01/09 11:42:12;;;;;;;20.00;9.60;;;;;;;3.34;84.89;98094.36;1760765;80;21103;-83
2022/01/09 11:44:53;;;;;;;16.85;9.73;;;;;;;3.35;84.94;98093.50;1738439;80;21005;31
2022/01/09 11:47:23;;;;;;;22.77;10.30;;;;;;;3.36;84.94;98090.05;1616721;85;21052;-87
2022/01/09 11:49:56;;;;;;;18.07;7.70;;;;;;;3.37;84.98;98095.17;1727626;80;21143;-82
2022/01/09 11:52:30;;;;;;;15.32;8.08;;;;;;;3.38;84.89;98099.88;1720672;82;21076;-84
2022/01/09 11:55:04;;;;;;;16.42;8.00;;;;;;;3.37;84.30;98095.17;1720949;81;21044;-84
2022/01/09 11:57:40;;;;;;;15.60;7.95;;;;;;;3.43;84.54;98097.27;1687549;81;20989;-91
2022/01/09 12:00:38;;;;;;;16.07;7.62;;;;;;;3.45;84.61;98098.09;1670258;83;21049;-91
2022/01/09 12:03:34;;;;;;;25.32;8.98;;;;;;;3.50;84.94;98089.88;1699514;83;21044;-89
2022/01/09 12:06:12;;;;;;;21.00;9.08;;;;;;;3.54;84.72;98082.55;1705694;80;21087;-90
2022/01/09 12:09:01;;;;;;;27.05;10.10;;;;;;;3.56;84.63;98082.95;1640604;86;21056;-91
2022/01/09 12:12:18;;;;;;;24.15;9.70;;;;;;;3.58;84.69;98072.22;1680849;82;21576;-90
2022/01/09 12:15:09;;;;;;;20.92;10.30;;;;;;;3.55;84.53;98067.55;1654426;84;21047;-90
2022/01/09 12:17:44;;;;;;;15.60;8.20;;;;;;;3.45;84.71;98060.39;1754932;81;21112;-90
2022/01/09 12:20:28;;;;;;;17.85;8.30;;;;;;;3.39;84.56;98066.46;1670625;78;21091;-89
2022/01/09 12:23:02;;;;;;;17.20;8.45;;;;;;;3.40;84.78;98072.44;1665699;83;21087;-85
2022/01/09 12:25:40;;;;;;;18.73;9.13;;;;;;;3.35;85.00;98059.66;1678911;84;21134;-88
2022/01/09 12:28:27;;;;;;;16.35;8.53;;;;;;;3.34;84.81;98063.12;1695330;79;21128;-89
2022/01/09 12:31:00;;;;;;;16.40;8.10;;;;;;;3.29;84.82;98057.17;1674882;83;21062;-89
2022/01/09 12:33:35;;;;;;;10.48;5.65;;;;;;;3.31;85.45;98063.14;1703962;82;21058;-85
2022/01/09 12:36:13;;;;;;;12.70;4.95;;;;;;;3.29;84.49;98068.73;1703839;81;21070;-84
2022/01/09 12:38:56;;;;;;;12.07;5.40;;;;;;;3.24;84.54;98065.80;1672436;81;21122;-86
2022/01/09 12:41:27;;;;;;;9.80;5.12;;;;;;;3.23;84.74;98061.11;1670160;82;21121;-89
2022/01/09 12:44:00;;;;;;;8.90;4.50;;;;;;;3.22;84.64;98059.39;1654121;81;21057;-82
2022/01/09 12:46:26;;;;;;;8.65;4.50;;;;;;;3.20;84.77;98064.98;1688654;81;21034;31
2022/01/09 12:49:05;;;;;;;8.00;4.53;;;;;;;3.05;84.81;98062.61;1663637;85;21062;-92
2022/01/09 12:51:35;;;;;;;8.35;4.60;;;;;;;3.01;85.06;98061.80;1702623;81;21173;-90
2022/01/09 12:54:06;;;;;;;8.73;4.22;;;;;;;2.98;85.38;98063.97;1680614;83;21110;-89
2022/01/09 12:56:39;;;;;;;12.13;5.00;;;;;;;2.99;85.37;98063.09;1700332;80;21007;-83
2022/01/09 12:59:10;;;;;;;44.65;14.60;;;;;;;2.97;85.08;98063.98;1674926;80;21089;-89
2022/01/09 13:01:49;;;;;;;39.63;13.60;;;;;;;2.94;85.28;98062.27;1666349;83;21099;-85
2022/01/09 13:04:25;;;;;;;45.38;16.07;;;;;;;2.93;85.27;98065.73;1664441;83;21119;-92
2022/01/09 13:06:57;;;;;;;24.35;10.88;;;;;;;2.91;85.44;98057.19;1681010;82;21075;-89
2022/01/09 13:09:31;;;;;;;19.30;7.25;;;;;;;2.87;85.52;98056.81;1698047;80;21134;-91
2022/01/09 13:12:02;;;;;;;11.90;6.45;;;;;;;2.84;86.03;98062.41;1664483;83;21156;-90
2022/01/09 13:14:30;;;;;;;14.10;6.62;;;;;;;2.86;85.75;98067.93;1710781;81;21056;-87
2022/01/09 13:16:59;;;;;;;10.25;5.75;;;;;;;2.82;85.46;98072.68;1712408;83;21035;-90
2022/01/09 13:19:27;;;;;;;11.55;6.12;;;;;;;2.81;85.40;98078.70;1663340;80;21123;-91
2022/01/09 13:21:54;;;;;;;11.50;6.58;;;;;;;2.78;85.43;98082.13;1640397;86;21555;-89
2022/01/09 13:24:31;;;;;;;17.27;7.92;;;;;;;2.71;85.83;98077.09;1652573;82;21165;-90
2022/01/09 13:26:59;;;;;;;14.63;6.00;;;;;;;2.73;85.76;98071.07;1617153;85;20988;-83
2022/01/09 13:29:33;;;;;;;15.35;6.22;;;;;;;2.71;85.68;98072.80;1651753;85;21135;-90
2022/01/09 13:32:06;;;;;;;14.50;6.70;;;;;;;2.70;86.27;98073.66;1631818;83;21119;-91
2022/01/09 13:34:41;;;;;;;13.32;6.80;;;;;;;2.71;86.10;98078.38;1623527;84;21124;-85
2022/01/09 13:37:12;;;;;;;16.37;7.28;;;;;;;2.69;85.95;98081.39;1625352;85;21064;-89
2022/01/09 13:39:44;;;;;;;12.93;6.42;;;;;;;2.70;86.25;98079.23;1678890;83;21186;-91
2022/01/09 13:42:22;;;;;;;10.68;6.12;;;;;;;2.75;86.25;98084.73;1704927;80;21119;-88
2022/01/09 13:45:13;;;;;;;15.05;6.83;;;;;;;2.71;85.57;98078.38;1679982;80;21170;-84
2022/01/09 13:47:51;;;;;;;11.70;7.05;;;;;;;2.64;86.01;98076.72;1648823;81;21108;-89
2022/01/09 13:50:46;;;;;;;11.22;6.17;;;;;;;2.63;86.08;98077.16;1725146;80;21051;-89
2022/01/09 13:53:15;;;;;;;15.60;8.73;;;;;;;2.61;86.24;98081.46;1708101;80;21161;-90
2022/01/09 13:55:43;;;;;;;22.07;9.43;;;;;;;2.62;85.93;98082.30;1696444;84;21130;-89
2022/01/09 13:58:18;;;;;;;19.55;9.18;;;;;;;2.58;86.40;98080.19;1694061;84;21084;-89
2022/01/09 14:00:49;;;;;;;16.40;9.13;;;;;;;2.56;86.29;98080.20;1687938;82;21173;-91
2022/01/09 14:03:27;;;;;;;14.75;7.95;;;;;;;2.61;86.34;98078.89;1650821;83;21125;-91
2022/01/09 14:05:55;;;;;;;16.00;8.45;;;;;;;2.64;86.52;98079.29;1636185;84;21091;-90
2022/01/09 14:08:37;;;;;;;20.00;9.43;;;;;;;2.64;86.16;98078.84;1639879;87;21091;-90
2022/01/09 14:11:08;;;;;;;18.23;9.15;;;;;;;2.67;86.24;98071.58;1692266;83;21083;-90
2022/01/09 14:13:42;;;;;;;15.98;8.23;;;;;;;2.66;86.87;98078.41;1708052;81;21074;-89
2022/01/09 14:16:13;;;;;;;17.90;8.78;;;;;;;2.70;86.87;98084.36;1708512;82;20998;-88
2022/01/09 14:18:40;;;;;;;17.32;9.30;;;;;;;2.70;86.31;98081.80;1654561;87;21035;-88
2022/01/09 14:21:14;;;;;;;18.87;8.48;;;;;;;2.69;86.07;98073.25;1627771;87;20992;-90
2022/01/09 14:23:48;;;;;;;21.68;9.60;;;;;;;2.67;86.74;98072.42;1702777;82;21568;-89
2022/01/09 14:26:22;;;;;;;13.88;7.92;;;;;;;2.49;86.21;98046.95;1780637;77;21113;-89
2022/01/09 14:28:52;;;;;;;19.07;9.13;;;;;;;2.64;85.88;98072.44;1740512;81;21119;-86
2022/01/09 14:31:21;;;;;;;18.80;9.40;;;;;;;2.62;85.71;98072.88;1771471;80;21033;-88
2022/01/09 14:33:54;;;;;;;19.55;9.20;;;;;;;2.57;86.14;98079.34;1654412;77;21573;-89
2022/01/09 14:39:09;;;;;;;15.58;8.45;;;;;;;2.49;85.90;98091.84;1733218;82;21527;-89
2022/01/09 14:41:37;;;;;;;26.87;11.18;;;;;;;2.46;86.09;98091.41;1680991;83;21110;-90
2022/01/09 14:44:07;;;;;;;25.10;11.57;;;;;;;2.47;86.17;98083.31;1748139;82;21088;-90
2022/01/09 14:46:39;;;;;;;23.10;11.05;;;;;;;2.45;86.33;98080.75;1685056;80;21119;-88
2022/01/09 14:49:07;;;;;;;31.25;14.20;;;;;;;2.42;85.96;98070.94;1722624;80;21035;-89
2022/01/09 14:51:34;;;;;;;29.57;13.13;;;;;;;2.39;85.92;98074.39;1759140;81;21069;-87
2022/01/09 14:54:02;;;;;;;38.98;15.43;;;;;;;2.32;85.87;98070.17;1754632;81;21014;-88
2022/01/09 14:56:30;;;;;;;32.73;14.33;;;;;;;2.26;86.52;98077.47;1756421;81;21034;-87
2022/01/09 14:58:57;;;;;;;30.55;14.25;;;;;;;2.29;86.63;98077.88;1738198;82;21016;-86
2022/01/09 15:01:25;;;;;;;27.17;13.05;;;;;;;2.25;86.68;98080.05;1728846;82;21083;-90
2022/01/09 15:03:55;;;;;;;28.20;12.50;;;;;;;2.23;86.40;98074.95;1755746;82;21011;-85
2022/01/09 15:06:23;;;;;;;25.27;13.38;;;;;;;2.23;86.56;98071.52;1696773;80;21052;-87
2022/01/09 15:08:51;;;;;;;30.45;13.72;;;;;;;2.23;86.23;98073.67;1687388;84;21083;-88
2022/01/09 15:11:19;;;;;;;31.90;13.13;;;;;;;2.22;87.01;98080.09;1664948;85;20992;-88
2022/01/09 15:13:47;;;;;;;30.77;14.10;;;;;;;2.24;87.06;98074.07;1689629;83;21624;-89
2022/01/09 15:16:15;;;;;;;21.73;8.48;;;;;;;2.26;87.12;98073.63;1726455;81;21132;-86
2022/01/09 15:18:43;;;;;;;18.75;9.35;;;;;;;2.30;86.20;98073.17;1719557;79;21088;-87
2022/01/09 15:21:12;;;;;;;21.90;9.63;;;;;;;2.22;86.54;98081.37;1680997;85;21159;-85
2022/01/09 15:23:44;;;;;;;24.30;11.53;;;;;;;2.23;86.84;98077.92;1710161;82;21605;-89
2022/01/09 15:26:14;;;;;;;25.27;12.13;;;;;;;2.26;86.64;98078.76;1774712;80;21124;-85
2022/01/09 15:28:39;;;;;;;28.77;12.70;;;;;;;2.25;86.65;98083.89;1705965;82;21211;-85
2022/01/09 15:31:08;;;;;;;25.65;12.20;;;;;;;2.25;87.14;98087.73;1708017;83;21485;-85
2022/01/09 15:33:37;;;;;;;25.60;12.37;;;;;;;2.28;87.46;98088.57;1687446;81;21138;-88
2022/01/09 15:36:06;;;;;;;24.77;11.90;;;;;;;2.31;87.17;98092.41;1674784;82;21068;-88
2022/01/09 15:38:34;;;;;;;27.05;12.65;;;;;;;2.32;86.80;98092.81;1684013;84;21022;-86
2022/01/09 15:41:01;;;;;;;28.23;11.28;;;;;;;2.28;86.79;98099.27;1684537;85;21062;-88
2022/01/09 15:43:29;;;;;;;19.82;10.40;;;;;;;2.27;86.62;98098.42;1744614;82;21547;-82
2022/01/09 15:45:56;;;;;;;20.55;9.53;;;;;;;2.23;86.61;98094.19;1733104;82;21012;-86
2022/01/09 15:48:24;;;;;;;26.12;10.65;;;;;;;2.15;86.83;98092.12;1742554;82;21003;-83
2022/01/09 15:50:51;;;;;;;23.47;11.85;;;;;;;2.14;86.90;98084.83;1744599;81;21556;-87
2022/01/09 15:53:21;;;;;;;26.40;12.13;;;;;;;2.15;86.86;98081.42;1742536;81;21088;-88
2022/01/09 15:55:50;;;;;;;32.73;13.38;;;;;;;2.10;87.14;98088.28;1717418;82;21611;-89
2022/01/09 15:58:19;;;;;;;29.25;14.68;;;;;;;2.11;86.96;98090.41;1688394;81;21060;-86
2022/01/09 16:00:54;;;;;;;31.30;14.35;;;;;;;2.05;87.46;98100.30;1610477;83;21085;-85
2022/01/09 16:03:17;;;;;;;31.30;14.47;;;;;;;2.06;86.81;98093.02;1664840;82;21003;-83
2022/01/09 16:05:45;;;;;;;33.95;15.40;;;;;;;2.06;86.87;98094.73;1618694;86;21126;-84
2022/01/09 16:08:12;;;;;;;31.68;15.50;;;;;;;1.98;87.71;98094.78;1651841;86;21040;-86
2022/01/09 16:10:42;;;;;;;28.35;14.55;;;;;;;1.93;87.89;98091.39;1648926;83;21205;-83
2022/01/09 16:13:09;;;;;;;31.68;15.10;;;;;;;1.92;87.53;98092.27;1680921;85;21581;-89
2022/01/09 16:15:37;;;;;;;36.03;16.32;;;;;;;1.94;87.48;98090.54;1679394;85;21014;-87
2022/01/09 16:18:04;;;;;;;31.95;14.35;;;;;;;1.87;88.39;98093.59;1667520;85;21044;-86
2022/01/09 16:20:32;;;;;;;31.60;13.98;;;;;;;1.87;88.39;98089.73;1689091;83;21047;-87
2022/01/09 16:22:59;;;;;;;34.23;14.45;;;;;;;1.88;87.88;98089.30;1685922;84;21033;-87
2022/01/09 16:25:27;;;;;;;30.77;14.23;;;;;;;1.83;88.43;98085.50;1668687;85;21080;-85
2022/01/09 16:27:54;;;;;;;34.35;14.73;;;;;;;1.82;88.37;98089.34;1710816;83;20983;-85
2022/01/09 16:30:23;;;;;;;27.60;13.80;;;;;;;1.84;88.48;98090.18;1701054;84;21031;-89
2022/01/09 16:32:50;;;;;;;31.57;14.18;;;;;;;1.81;88.79;98093.63;1688163;83;21088;-87
2022/01/09 16:35:19;;;;;;;28.60;13.98;;;;;;;1.82;88.72;98096.59;1702103;84;21030;-86
2022/01/09 16:37:47;;;;;;;32.10;14.03;;;;;;;1.86;88.59;98098.71;1635875;83;21185;-88
2022/01/09 16:40:14;;;;;;;30.72;15.53;;;;;;;1.87;88.53;98096.55;1627756;87;21044;-83
2022/01/09 16:42:42;;;;;;;35.28;15.45;;;;;;;1.89;88.00;98094.83;1627945;87;21061;-85
2022/01/09 16:45:12;;;;;;;36.35;14.33;;;;;;;1.87;88.85;98097.83;1673851;84;21160;-84
2022/01/09 16:47:39;;;;;;;30.90;15.23;;;;;;;1.88;87.82;98090.14;1654312;86;21095;-87
2022/01/09 16:50:08;;;;;;;36.75;15.45;;;;;;;1.86;87.67;98089.30;1686049;84;20991;-85
2022/01/09 16:52:36;;;;;;;41.37;18.48;;;;;;;1.84;88.72;98090.18;1700494;79;21020;-85
2022/01/09 16:55:05;;;;;;;43.25;18.30;;;;;;;1.85;89.07;98090.59;1689762;81;21123;-84
2022/01/09 16:57:35;;;;;;;31.35;16.07;;;;;;;1.89;88.87;98092.27;1700553;83;21086;-84
2022/01/09 17:00:05;;;;;;;37.38;17.35;;;;;;;1.93;88.10;98088.41;1701544;81;20993;-84
2022/01/09 17:02:33;;;;;;;39.63;19.00;;;;;;;1.93;88.88;98094.82;1690423;81;21264;-86